sensor_id;sensor_type;location;lat;lon;timestamp;P1;durP1;ratioP1;P2;durP2;ratioP2
42988;SDS011;28622;43.716;20.668;2022-10-31T00:00:20;29.02;;;15.77;;
42988;SDS011;28622;43.716;20.668;2022-10-31T00:02:46;42.90;;;16.52;;
42988;SDS011;28622;43.716;20.668;2022-10-31T00:05:12;30.13;;;14.57;;
42988;SDS011;28622;43.716;20.668;2022-10-31T00:07:38;31.38;;;14.73;;
42988;SDS011;28622;43.716;20.668;2022-10-31T00:10:04;33.85;;;13.70;;
42988;SDS011;28622;43.716;20.668;2022-10-31T00:12:30;33.10;;;14.75;;
42988;SDS011;28622;43.716;20.668;2022-10-31T00:14:55;24.27;;;13.23;;
42988;SDS011;28622;43.716;20.668;2022-10-31T00:17:21;29.08;;;13.38;;
42988;SDS011;28622;43.716;20.668;2022-10-31T00:19:47;23.27;;;13.68;;
42988;SDS011;28622;43.716;20.668;2022-10-31T00:22:13;33.38;;;13.13;;
42988;SDS011;28622;43.716;20.668;2022-10-31T00:24:38;29.08;;;13.20;;
42988;SDS011;28622;43.716;20.668;2022-10-31T00:27:04;27.70;;;13.80;;
42988;SDS011;28622;43.716;20.668;2022-10-31T00:29:30;27.02;;;12.90;;
42988;SDS011;28622;43.716;20.668;2022-10-31T00:31:56;25.65;;;13.23;;
42988;SDS011;28622;43.716;20.668;2022-10-31T00:34:21;26.85;;;13.02;;
42988;SDS011;28622;43.716;20.668;2022-10-31T00:36:47;28.52;;;13.40;;
42988;SDS011;28622;43.716;20.668;2022-10-31T00:39:13;27.15;;;13.52;;
42988;SDS011;28622;43.716;20.668;2022-10-31T00:41:38;32.40;;;14.73;;
42988;SDS011;28622;43.716;20.668;2022-10-31T00:44:04;27.30;;;12.13;;
42988;SDS011;28622;43.716;20.668;2022-10-31T00:46:30;23.88;;;12.00;;
42988;SDS011;28622;43.716;20.668;2022-10-31T00:48:58;20.60;;;10.68;;
42988;SDS011;28622;43.716;20.668;2022-10-31T00:51:24;24.83;;;12.68;;
42988;SDS011;28622;43.716;20.668;2022-10-31T00:53:50;22.60;;;11.75;;
42988;SDS011;28622;43.716;20.668;2022-10-31T00:56:15;24.00;;;11.93;;
42988;SDS011;28622;43.716;20.668;2022-10-31T00:58:41;26.13;;;11.43;;
42988;SDS011;28622;43.716;20.668;2022-10-31T01:01:07;22.70;;;11.98;;
42988;SDS011;28622;43.716;20.668;2022-10-31T01:03:33;19.77;;;11.32;;
42988;SDS011;28622;43.716;20.668;2022-10-31T01:08:25;17.50;;;9.68;;
42988;SDS011;28622;43.716;20.668;2022-10-31T01:11:01;17.83;;;9.68;;
42988;SDS011;28622;43.716;20.668;2022-10-31T01:13:49;19.23;;;9.20;;
42988;SDS011;28622;43.716;20.668;2022-10-31T01:16:18;22.10;;;10.07;;
42988;SDS011;28622;43.716;20.668;2022-10-31T01:18:44;16.48;;;9.23;;
42988;SDS011;28622;43.716;20.668;2022-10-31T01:23:41;15.40;;;8.20;;
42988;SDS011;28622;43.716;20.668;2022-10-31T01:26:08;17.83;;;8.88;;
42988;SDS011;28622;43.716;20.668;2022-10-31T01:28:36;20.65;;;9.80;;
42988;SDS011;28622;43.716;20.668;2022-10-31T01:31:05;15.63;;;7.65;;
42988;SDS011;28622;43.716;20.668;2022-10-31T01:33:33;20.45;;;9.48;;
42988;SDS011;28622;43.716;20.668;2022-10-31T01:35:59;19.02;;;9.43;;
42988;SDS011;28622;43.716;20.668;2022-10-31T01:38:25;18.67;;;9.80;;
42988;SDS011;28622;43.716;20.668;2022-10-31T01:40:51;15.80;;;8.48;;
42988;SDS011;28622;43.716;20.668;2022-10-31T01:43:17;27.17;;;12.57;;
42988;SDS011;28622;43.716;20.668;2022-10-31T01:45:45;22.10;;;10.93;;
42988;SDS011;28622;43.716;20.668;2022-10-31T01:48:16;16.25;;;9.00;;
42988;SDS011;28622;43.716;20.668;2022-10-31T01:50:47;21.02;;;9.73;;
42988;SDS011;28622;43.716;20.668;2022-10-31T01:53:15;24.38;;;10.90;;
42988;SDS011;28622;43.716;20.668;2022-10-31T01:55:43;21.25;;;8.80;;
42988;SDS011;28622;43.716;20.668;2022-10-31T01:58:12;16.92;;;8.75;;
42988;SDS011;28622;43.716;20.668;2022-10-31T02:00:40;16.02;;;7.47;;
42988;SDS011;28622;43.716;20.668;2022-10-31T02:03:10;19.27;;;9.10;;
42988;SDS011;28622;43.716;20.668;2022-10-31T02:05:36;22.08;;;9.57;;
42988;SDS011;28622;43.716;20.668;2022-10-31T02:10:34;18.38;;;9.50;;
42988;SDS011;28622;43.716;20.668;2022-10-31T02:13:02;23.73;;;10.07;;
42988;SDS011;28622;43.716;20.668;2022-10-31T02:15:30;20.77;;;10.25;;
42988;SDS011;28622;43.716;20.668;2022-10-31T02:17:57;26.35;;;10.32;;
42988;SDS011;28622;43.716;20.668;2022-10-31T02:20:24;21.88;;;9.65;;
42988;SDS011;28622;43.716;20.668;2022-10-31T02:23:08;16.75;;;8.40;;
42988;SDS011;28622;43.716;20.668;2022-10-31T02:29:04;14.80;;;7.68;;
42988;SDS011;28622;43.716;20.668;2022-10-31T02:32:09;13.73;;;7.30;;
42988;SDS011;28622;43.716;20.668;2022-10-31T02:37:11;11.90;;;8.20;;
42988;SDS011;28622;43.716;20.668;2022-10-31T02:42:34;13.43;;;7.43;;
42988;SDS011;28622;43.716;20.668;2022-10-31T02:47:44;14.93;;;8.52;;
42988;SDS011;28622;43.716;20.668;2022-10-31T02:50:15;14.45;;;8.02;;
42988;SDS011;28622;43.716;20.668;2022-10-31T02:52:50;19.02;;;8.35;;
42988;SDS011;28622;43.716;20.668;2022-10-31T02:57:52;14.85;;;8.10;;
42988;SDS011;28622;43.716;20.668;2022-10-31T03:00:33;15.52;;;7.50;;
42988;SDS011;28622;43.716;20.668;2022-10-31T03:06:34;11.65;;;7.35;;
42988;SDS011;28622;43.716;20.668;2022-10-31T03:11:58;15.80;;;8.60;;
42988;SDS011;28622;43.716;20.668;2022-10-31T03:14:43;17.63;;;8.98;;
42988;SDS011;28622;43.716;20.668;2022-10-31T03:18:00;17.48;;;8.35;;
42988;SDS011;28622;43.716;20.668;2022-10-31T03:20:33;19.00;;;8.25;;
42988;SDS011;28622;43.716;20.668;2022-10-31T03:23:11;15.68;;;8.13;;
42988;SDS011;28622;43.716;20.668;2022-10-31T03:25:40;15.07;;;8.13;;
42988;SDS011;28622;43.716;20.668;2022-10-31T03:28:07;20.33;;;9.07;;
42988;SDS011;28622;43.716;20.668;2022-10-31T03:30:36;16.67;;;7.75;;
42988;SDS011;28622;43.716;20.668;2022-10-31T03:33:07;18.35;;;7.75;;
42988;SDS011;28622;43.716;20.668;2022-10-31T03:35:36;16.23;;;8.68;;
42988;SDS011;28622;43.716;20.668;2022-10-31T03:38:07;13.15;;;7.40;;
42988;SDS011;28622;43.716;20.668;2022-10-31T03:40:34;13.32;;;6.97;;
42988;SDS011;28622;43.716;20.668;2022-10-31T03:43:04;13.90;;;8.10;;
42988;SDS011;28622;43.716;20.668;2022-10-31T03:45:35;14.32;;;8.05;;
42988;SDS011;28622;43.716;20.668;2022-10-31T03:48:08;19.35;;;8.65;;
42988;SDS011;28622;43.716;20.668;2022-10-31T03:50:38;15.98;;;8.52;;
42988;SDS011;28622;43.716;20.668;2022-10-31T03:53:15;15.85;;;7.80;;
42988;SDS011;28622;43.716;20.668;2022-10-31T03:55:52;22.75;;;10.02;;
42988;SDS011;28622;43.716;20.668;2022-10-31T03:58:25;19.90;;;8.95;;
42988;SDS011;28622;43.716;20.668;2022-10-31T04:00:57;14.73;;;8.55;;
42988;SDS011;28622;43.716;20.668;2022-10-31T04:03:31;17.98;;;7.90;;
42988;SDS011;28622;43.716;20.668;2022-10-31T04:06:02;17.60;;;8.15;;
42988;SDS011;28622;43.716;20.668;2022-10-31T04:08:31;12.35;;;7.30;;
42988;SDS011;28622;43.716;20.668;2022-10-31T04:11:01;15.10;;;6.53;;
42988;SDS011;28622;43.716;20.668;2022-10-31T04:13:29;11.07;;;6.13;;
42988;SDS011;28622;43.716;20.668;2022-10-31T04:15:59;14.48;;;7.75;;
42988;SDS011;28622;43.716;20.668;2022-10-31T04:18:25;22.13;;;9.07;;
42988;SDS011;28622;43.716;20.668;2022-10-31T04:21:01;14.85;;;7.72;;
42988;SDS011;28622;43.716;20.668;2022-10-31T04:23:29;17.20;;;7.68;;
42988;SDS011;28622;43.716;20.668;2022-10-31T04:25:56;12.80;;;7.28;;
42988;SDS011;28622;43.716;20.668;2022-10-31T04:28:21;14.13;;;7.25;;
42988;SDS011;28622;43.716;20.668;2022-10-31T04:30:47;15.95;;;7.05;;
42988;SDS011;28622;43.716;20.668;2022-10-31T04:33:13;15.52;;;7.93;;
42988;SDS011;28622;43.716;20.668;2022-10-31T04:35:39;10.80;;;6.75;;
42988;SDS011;28622;43.716;20.668;2022-10-31T04:38:05;14.90;;;6.28;;
42988;SDS011;28622;43.716;20.668;2022-10-31T04:40:31;15.77;;;6.18;;
42988;SDS011;28622;43.716;20.668;2022-10-31T04:42:56;12.05;;;5.53;;
42988;SDS011;28622;43.716;20.668;2022-10-31T04:45:22;10.07;;;5.65;;
42988;SDS011;28622;43.716;20.668;2022-10-31T04:47:48;12.70;;;6.00;;
42988;SDS011;28622;43.716;20.668;2022-10-31T04:50:14;13.35;;;6.30;;
42988;SDS011;28622;43.716;20.668;2022-10-31T04:52:43;10.50;;;6.13;;
42988;SDS011;28622;43.716;20.668;2022-10-31T04:55:10;11.43;;;6.88;;
42988;SDS011;28622;43.716;20.668;2022-10-31T04:57:41;15.70;;;6.43;;
42988;SDS011;28622;43.716;20.668;2022-10-31T05:00:11;13.27;;;6.25;;
42988;SDS011;28622;43.716;20.668;2022-10-31T05:02:45;12.38;;;6.18;;
42988;SDS011;28622;43.716;20.668;2022-10-31T05:05:16;12.10;;;6.60;;
42988;SDS011;28622;43.716;20.668;2022-10-31T05:07:44;11.63;;;6.65;;
42988;SDS011;28622;43.716;20.668;2022-10-31T05:10:12;11.68;;;6.45;;
42988;SDS011;28622;43.716;20.668;2022-10-31T05:12:46;13.70;;;6.35;;
42988;SDS011;28622;43.716;20.668;2022-10-31T05:15:14;17.67;;;6.80;;
42988;SDS011;28622;43.716;20.668;2022-10-31T05:17:40;14.93;;;6.22;;
42988;SDS011;28622;43.716;20.668;2022-10-31T05:20:07;12.52;;;7.22;;
42988;SDS011;28622;43.716;20.668;2022-10-31T05:22:33;11.02;;;6.70;;
42988;SDS011;28622;43.716;20.668;2022-10-31T05:24:59;13.93;;;6.78;;
42988;SDS011;28622;43.716;20.668;2022-10-31T05:27:24;14.98;;;7.28;;
42988;SDS011;28622;43.716;20.668;2022-10-31T05:29:50;15.05;;;6.90;;
42988;SDS011;28622;43.716;20.668;2022-10-31T05:32:16;14.65;;;6.97;;
42988;SDS011;28622;43.716;20.668;2022-10-31T05:34:42;13.85;;;7.05;;
42988;SDS011;28622;43.716;20.668;2022-10-31T05:37:07;12.18;;;6.78;;
42988;SDS011;28622;43.716;20.668;2022-10-31T05:39:33;16.77;;;9.88;;
42988;SDS011;28622;43.716;20.668;2022-10-31T05:41:59;18.63;;;9.15;;
42988;SDS011;28622;43.716;20.668;2022-10-31T05:44:24;16.55;;;8.18;;
42988;SDS011;28622;43.716;20.668;2022-10-31T05:46:50;12.98;;;7.53;;
42988;SDS011;28622;43.716;20.668;2022-10-31T05:49:16;18.48;;;7.65;;
42988;SDS011;28622;43.716;20.668;2022-10-31T05:51:42;12.93;;;7.00;;
42988;SDS011;28622;43.716;20.668;2022-10-31T05:54:08;23.20;;;9.90;;
42988;SDS011;28622;43.716;20.668;2022-10-31T05:56:33;19.98;;;10.57;;
42988;SDS011;28622;43.716;20.668;2022-10-31T05:58:59;16.38;;;8.73;;
42988;SDS011;28622;43.716;20.668;2022-10-31T06:01:25;28.05;;;10.60;;
42988;SDS011;28622;43.716;20.668;2022-10-31T06:03:51;23.45;;;9.95;;
42988;SDS011;28622;43.716;20.668;2022-10-31T06:06:16;27.02;;;11.57;;
42988;SDS011;28622;43.716;20.668;2022-10-31T06:08:43;21.33;;;9.85;;
42988;SDS011;28622;43.716;20.668;2022-10-31T06:11:08;24.00;;;9.60;;
42988;SDS011;28622;43.716;20.668;2022-10-31T06:13:34;22.55;;;9.57;;
42988;SDS011;28622;43.716;20.668;2022-10-31T06:16:00;22.30;;;10.20;;
42988;SDS011;28622;43.716;20.668;2022-10-31T06:18:25;25.73;;;11.68;;
42988;SDS011;28622;43.716;20.668;2022-10-31T06:20:51;20.80;;;9.93;;
42988;SDS011;28622;43.716;20.668;2022-10-31T06:23:17;15.25;;;8.48;;
42988;SDS011;28622;43.716;20.668;2022-10-31T06:25:43;20.52;;;9.10;;
42988;SDS011;28622;43.716;20.668;2022-10-31T06:28:12;20.17;;;8.82;;
42988;SDS011;28622;43.716;20.668;2022-10-31T06:30:38;19.42;;;8.02;;
42988;SDS011;28622;43.716;20.668;2022-10-31T06:33:04;15.93;;;8.77;;
42988;SDS011;28622;43.716;20.668;2022-10-31T06:35:30;13.25;;;7.50;;
42988;SDS011;28622;43.716;20.668;2022-10-31T06:37:56;14.18;;;7.88;;
42988;SDS011;28622;43.716;20.668;2022-10-31T06:40:24;15.80;;;9.05;;
42988;SDS011;28622;43.716;20.668;2022-10-31T06:43:00;15.05;;;8.50;;
42988;SDS011;28622;43.716;20.668;2022-10-31T06:45:26;15.32;;;8.73;;
42988;SDS011;28622;43.716;20.668;2022-10-31T06:47:53;24.02;;;10.65;;
42988;SDS011;28622;43.716;20.668;2022-10-31T06:50:19;16.88;;;9.73;;
42988;SDS011;28622;43.716;20.668;2022-10-31T06:52:56;21.10;;;11.35;;
42988;SDS011;28622;43.716;20.668;2022-10-31T06:55:23;25.08;;;11.10;;
42988;SDS011;28622;43.716;20.668;2022-10-31T06:57:59;22.63;;;10.07;;
42988;SDS011;28622;43.716;20.668;2022-10-31T07:00:27;21.30;;;10.07;;
42988;SDS011;28622;43.716;20.668;2022-10-31T07:02:56;25.48;;;11.57;;
42988;SDS011;28622;43.716;20.668;2022-10-31T07:05:23;22.77;;;11.02;;
42988;SDS011;28622;43.716;20.668;2022-10-31T07:07:54;24.27;;;12.18;;
42988;SDS011;28622;43.716;20.668;2022-10-31T07:10:21;18.90;;;10.25;;
42988;SDS011;28622;43.716;20.668;2022-10-31T07:12:48;22.95;;;11.48;;
42988;SDS011;28622;43.716;20.668;2022-10-31T07:15:13;20.50;;;11.23;;
42988;SDS011;28622;43.716;20.668;2022-10-31T07:17:39;16.63;;;10.30;;
42988;SDS011;28622;43.716;20.668;2022-10-31T07:20:05;21.08;;;9.75;;
42988;SDS011;28622;43.716;20.668;2022-10-31T07:22:32;19.70;;;9.57;;
42988;SDS011;28622;43.716;20.668;2022-10-31T07:24:59;14.82;;;9.02;;
42988;SDS011;28622;43.716;20.668;2022-10-31T07:27:25;20.90;;;11.70;;
42988;SDS011;28622;43.716;20.668;2022-10-31T07:29:50;20.60;;;10.63;;
42988;SDS011;28622;43.716;20.668;2022-10-31T07:32:16;19.17;;;10.93;;
42988;SDS011;28622;43.716;20.668;2022-10-31T07:34:42;15.73;;;10.02;;
42988;SDS011;28622;43.716;20.668;2022-10-31T07:37:08;20.75;;;9.63;;
42988;SDS011;28622;43.716;20.668;2022-10-31T07:39:34;22.83;;;9.55;;
42988;SDS011;28622;43.716;20.668;2022-10-31T07:41:59;22.02;;;10.38;;
42988;SDS011;28622;43.716;20.668;2022-10-31T07:44:25;18.65;;;9.50;;
42988;SDS011;28622;43.716;20.668;2022-10-31T07:46:51;15.93;;;9.07;;
42988;SDS011;28622;43.716;20.668;2022-10-31T07:49:17;23.38;;;10.20;;
42988;SDS011;28622;43.716;20.668;2022-10-31T07:51:42;18.85;;;9.10;;
42988;SDS011;28622;43.716;20.668;2022-10-31T07:54:09;15.70;;;8.77;;
42988;SDS011;28622;43.716;20.668;2022-10-31T07:56:35;18.23;;;9.45;;
42988;SDS011;28622;43.716;20.668;2022-10-31T07:59:01;15.68;;;8.57;;
42988;SDS011;28622;43.716;20.668;2022-10-31T08:01:27;16.83;;;7.50;;
42988;SDS011;28622;43.716;20.668;2022-10-31T08:03:52;19.42;;;8.68;;
42988;SDS011;28622;43.716;20.668;2022-10-31T08:06:18;9.77;;;6.47;;
42988;SDS011;28622;43.716;20.668;2022-10-31T08:08:44;25.90;;;8.02;;
42988;SDS011;28622;43.716;20.668;2022-10-31T08:11:09;14.95;;;5.53;;
42988;SDS011;28622;43.716;20.668;2022-10-31T08:13:35;9.85;;;5.53;;
42988;SDS011;28622;43.716;20.668;2022-10-31T08:16:01;11.50;;;5.80;;
42988;SDS011;28622;43.716;20.668;2022-10-31T08:18:29;10.82;;;5.82;;
42988;SDS011;28622;43.716;20.668;2022-10-31T08:20:55;14.57;;;5.63;;
42988;SDS011;28622;43.716;20.668;2022-10-31T08:23:21;10.35;;;5.10;;
42988;SDS011;28622;43.716;20.668;2022-10-31T08:25:47;8.65;;;3.15;;
42988;SDS011;28622;43.716;20.668;2022-10-31T08:28:13;7.40;;;2.95;;
42988;SDS011;28622;43.716;20.668;2022-10-31T08:30:39;7.00;;;3.85;;
42988;SDS011;28622;43.716;20.668;2022-10-31T08:35:34;6.80;;;3.45;;
42988;SDS011;28622;43.716;20.668;2022-10-31T08:38:00;8.98;;;3.38;;
42988;SDS011;28622;43.716;20.668;2022-10-31T08:40:27;7.80;;;3.58;;
42988;SDS011;28622;43.716;20.668;2022-10-31T08:43:16;11.40;;;3.63;;
42988;SDS011;28622;43.716;20.668;2022-10-31T08:45:42;15.48;;;4.15;;
42988;SDS011;28622;43.716;20.668;2022-10-31T08:48:11;12.90;;;4.40;;
42988;SDS011;28622;43.716;20.668;2022-10-31T08:50:38;9.27;;;4.00;;
42988;SDS011;28622;43.716;20.668;2022-10-31T08:53:14;4.80;;;2.85;;
42988;SDS011;28622;43.716;20.668;2022-10-31T08:55:42;8.27;;;3.78;;
42988;SDS011;28622;43.716;20.668;2022-10-31T08:58:13;9.77;;;4.20;;
42988;SDS011;28622;43.716;20.668;2022-10-31T09:00:41;9.02;;;4.05;;
42988;SDS011;28622;43.716;20.668;2022-10-31T09:03:12;8.07;;;4.72;;
42988;SDS011;28622;43.716;20.668;2022-10-31T09:05:39;5.57;;;3.22;;
42988;SDS011;28622;43.716;20.668;2022-10-31T09:08:06;7.63;;;3.15;;
42988;SDS011;28622;43.716;20.668;2022-10-31T09:10:33;8.93;;;3.70;;
42988;SDS011;28622;43.716;20.668;2022-10-31T09:13:11;5.97;;;3.47;;
42988;SDS011;28622;43.716;20.668;2022-10-31T09:15:38;5.80;;;3.08;;
42988;SDS011;28622;43.716;20.668;2022-10-31T09:18:06;7.95;;;2.92;;
42988;SDS011;28622;43.716;20.668;2022-10-31T09:20:33;4.72;;;2.65;;
42988;SDS011;28622;43.716;20.668;2022-10-31T09:23:01;6.68;;;2.90;;
42988;SDS011;28622;43.716;20.668;2022-10-31T09:25:32;5.28;;;2.78;;
42988;SDS011;28622;43.716;20.668;2022-10-31T09:27:58;6.70;;;3.15;;
42988;SDS011;28622;43.716;20.668;2022-10-31T09:30:26;7.07;;;3.05;;
42988;SDS011;28622;43.716;20.668;2022-10-31T09:32:57;5.82;;;3.08;;
42988;SDS011;28622;43.716;20.668;2022-10-31T09:35:24;7.60;;;3.55;;
42988;SDS011;28622;43.716;20.668;2022-10-31T09:37:57;7.10;;;2.97;;
42988;SDS011;28622;43.716;20.668;2022-10-31T09:40:27;4.47;;;2.38;;
42988;SDS011;28622;43.716;20.668;2022-10-31T09:46:13;3.53;;;1.98;;
42988;SDS011;28622;43.716;20.668;2022-10-31T09:48:51;6.18;;;2.70;;
42988;SDS011;28622;43.716;20.668;2022-10-31T09:51:44;3.35;;;1.85;;
42988;SDS011;28622;43.716;20.668;2022-10-31T09:54:32;2.25;;;1.70;;
42988;SDS011;28622;43.716;20.668;2022-10-31T09:57:12;5.53;;;1.88;;
42988;SDS011;28622;43.716;20.668;2022-10-31T09:59:40;3.10;;;1.98;;
42988;SDS011;28622;43.716;20.668;2022-10-31T10:02:19;4.03;;;1.92;;
42988;SDS011;28622;43.716;20.668;2022-10-31T10:05:28;6.35;;;1.85;;
42988;SDS011;28622;43.716;20.668;2022-10-31T10:08:00;3.75;;;1.55;;
42988;SDS011;28622;43.716;20.668;2022-10-31T10:30:13;52.72;;;47.40;;
42988;SDS011;28622;43.716;20.668;2022-10-31T10:32:49;65.20;;;55.92;;
42988;SDS011;28622;43.716;20.668;2022-10-31T10:35:27;5.75;;;4.15;;
42988;SDS011;28622;43.716;20.668;2022-10-31T10:38:02;7.20;;;1.92;;
42988;SDS011;28622;43.716;20.668;2022-10-31T10:40:37;5.00;;;2.20;;
42988;SDS011;28622;43.716;20.668;2022-10-31T10:45:44;5.68;;;1.95;;
42988;SDS011;28622;43.716;20.668;2022-10-31T10:51:06;2.83;;;1.60;;
42988;SDS011;28622;43.716;20.668;2022-10-31T10:53:56;3.35;;;1.65;;
42988;SDS011;28622;43.716;20.668;2022-10-31T10:59:23;14.48;;;5.30;;
42988;SDS011;28622;43.716;20.668;2022-10-31T11:01:50;10.75;;;3.38;;
42988;SDS011;28622;43.716;20.668;2022-10-31T11:06:57;5.63;;;2.08;;
42988;SDS011;28622;43.716;20.668;2022-10-31T11:09:27;3.97;;;1.50;;
42988;SDS011;28622;43.716;20.668;2022-10-31T11:11:53;3.63;;;1.83;;
42988;SDS011;28622;43.716;20.668;2022-10-31T11:14:20;4.50;;;1.77;;
42988;SDS011;28622;43.716;20.668;2022-10-31T11:17:07;3.17;;;1.75;;
42988;SDS011;28622;43.716;20.668;2022-10-31T11:19:42;8.50;;;1.90;;
42988;SDS011;28622;43.716;20.668;2022-10-31T11:22:12;2.85;;;1.25;;
42988;SDS011;28622;43.716;20.668;2022-10-31T11:24:41;3.20;;;1.63;;
42988;SDS011;28622;43.716;20.668;2022-10-31T11:27:15;3.67;;;1.90;;
42988;SDS011;28622;43.716;20.668;2022-10-31T11:29:50;3.67;;;1.65;;
42988;SDS011;28622;43.716;20.668;2022-10-31T11:32:20;3.60;;;1.67;;
42988;SDS011;28622;43.716;20.668;2022-10-31T11:34:56;4.03;;;1.92;;
42988;SDS011;28622;43.716;20.668;2022-10-31T11:37:25;4.55;;;1.80;;
42988;SDS011;28622;43.716;20.668;2022-10-31T11:39:57;3.28;;;1.95;;
42988;SDS011;28622;43.716;20.668;2022-10-31T11:42:28;3.75;;;1.60;;
42988;SDS011;28622;43.716;20.668;2022-10-31T11:47:53;20.02;;;4.78;;
42988;SDS011;28622;43.716;20.668;2022-10-31T11:50:37;5.13;;;2.40;;
42988;SDS011;28622;43.716;20.668;2022-10-31T11:53:19;5.30;;;1.75;;
42988;SDS011;28622;43.716;20.668;2022-10-31T11:55:50;3.60;;;1.80;;
42988;SDS011;28622;43.716;20.668;2022-10-31T11:58:27;3.42;;;1.67;;
42988;SDS011;28622;43.716;20.668;2022-10-31T12:00:54;4.22;;;2.45;;
42988;SDS011;28622;43.716;20.668;2022-10-31T12:06:06;7.75;;;2.75;;
42988;SDS011;28622;43.716;20.668;2022-10-31T12:08:37;4.13;;;2.53;;
42988;SDS011;28622;43.716;20.668;2022-10-31T12:17:08;5.30;;;2.25;;
42988;SDS011;28622;43.716;20.668;2022-10-31T12:20:00;9.00;;;2.97;;
42988;SDS011;28622;43.716;20.668;2022-10-31T12:25:28;10.40;;;3.60;;
42988;SDS011;28622;43.716;20.668;2022-10-31T12:30:33;3.10;;;1.48;;
42988;SDS011;28622;43.716;20.668;2022-10-31T12:36:25;4.30;;;1.48;;
42988;SDS011;28622;43.716;20.668;2022-10-31T12:41:51;173.10;;;53.63;;
42988;SDS011;28622;43.716;20.668;2022-10-31T12:50:05;5.72;;;2.58;;
42988;SDS011;28622;43.716;20.668;2022-10-31T12:57:47;3.60;;;1.63;;
42988;SDS011;28622;43.716;20.668;2022-10-31T13:00:18;15.55;;;5.93;;
42988;SDS011;28622;43.716;20.668;2022-10-31T13:05:27;6.95;;;2.05;;
42988;SDS011;28622;43.716;20.668;2022-10-31T13:07:59;21.45;;;7.15;;
42988;SDS011;28622;43.716;20.668;2022-10-31T13:10:26;24.07;;;5.30;;
42988;SDS011;28622;43.716;20.668;2022-10-31T13:13:12;5.75;;;1.60;;
42988;SDS011;28622;43.716;20.668;2022-10-31T13:15:50;7.03;;;1.77;;
42988;SDS011;28622;43.716;20.668;2022-10-31T13:21:21;3.95;;;1.30;;
42988;SDS011;28622;43.716;20.668;2022-10-31T13:31:54;1.88;;;1.10;;
42988;SDS011;28622;43.716;20.668;2022-10-31T13:40:07;2.42;;;1.10;;
42988;SDS011;28622;43.716;20.668;2022-10-31T13:45:23;2.45;;;1.33;;
42988;SDS011;28622;43.716;20.668;2022-10-31T13:51:07;3.03;;;1.38;;
42988;SDS011;28622;43.716;20.668;2022-10-31T13:56:20;9.40;;;2.97;;
42988;SDS011;28622;43.716;20.668;2022-10-31T14:01:34;2.85;;;1.17;;
42988;SDS011;28622;43.716;20.668;2022-10-31T14:04:02;6.97;;;1.33;;
42988;SDS011;28622;43.716;20.668;2022-10-31T14:06:40;4.75;;;1.90;;
42988;SDS011;28622;43.716;20.668;2022-10-31T14:09:38;4.90;;;1.83;;
42988;SDS011;28622;43.716;20.668;2022-10-31T14:12:22;3.78;;;1.42;;
42988;SDS011;28622;43.716;20.668;2022-10-31T14:15:04;7.03;;;1.50;;
42988;SDS011;28622;43.716;20.668;2022-10-31T14:17:52;9.82;;;1.67;;
42988;SDS011;28622;43.716;20.668;2022-10-31T14:22:47;2.63;;;1.35;;
42988;SDS011;28622;43.716;20.668;2022-10-31T14:28:01;8.20;;;1.20;;
42988;SDS011;28622;43.716;20.668;2022-10-31T14:30:50;4.10;;;1.42;;
42988;SDS011;28622;43.716;20.668;2022-10-31T14:33:22;2.50;;;1.25;;
42988;SDS011;28622;43.716;20.668;2022-10-31T14:35:54;6.07;;;1.73;;
42988;SDS011;28622;43.716;20.668;2022-10-31T14:44:04;4.35;;;1.88;;
42988;SDS011;28622;43.716;20.668;2022-10-31T14:49:29;11.00;;;2.38;;
42988;SDS011;28622;43.716;20.668;2022-10-31T14:52:27;18.42;;;2.35;;
42988;SDS011;28622;43.716;20.668;2022-10-31T14:54:54;11.90;;;2.33;;
42988;SDS011;28622;43.716;20.668;2022-10-31T14:57:25;15.57;;;2.13;;
42988;SDS011;28622;43.716;20.668;2022-10-31T14:59:58;11.32;;;2.58;;
42988;SDS011;28622;43.716;20.668;2022-10-31T15:02:34;5.50;;;1.60;;
42988;SDS011;28622;43.716;20.668;2022-10-31T15:05:11;4.43;;;1.75;;
42988;SDS011;28622;43.716;20.668;2022-10-31T15:07:48;5.32;;;2.63;;
42988;SDS011;28622;43.716;20.668;2022-10-31T15:10:26;9.77;;;2.97;;
42988;SDS011;28622;43.716;20.668;2022-10-31T15:13:08;10.15;;;3.22;;
42988;SDS011;28622;43.716;20.668;2022-10-31T15:15:35;14.30;;;2.80;;
42988;SDS011;28622;43.716;20.668;2022-10-31T15:18:03;14.65;;;3.47;;
42988;SDS011;28622;43.716;20.668;2022-10-31T15:20:32;20.23;;;5.85;;
42988;SDS011;28622;43.716;20.668;2022-10-31T15:25:30;27.52;;;6.10;;
42988;SDS011;28622;43.716;20.668;2022-10-31T15:27:59;19.02;;;5.35;;
42988;SDS011;28622;43.716;20.668;2022-10-31T15:30:26;19.98;;;7.43;;
42988;SDS011;28622;43.716;20.668;2022-10-31T15:32:54;15.57;;;5.63;;
42988;SDS011;28622;43.716;20.668;2022-10-31T15:35:38;19.50;;;7.15;;
42988;SDS011;28622;43.716;20.668;2022-10-31T15:38:03;26.45;;;8.13;;
42988;SDS011;28622;43.716;20.668;2022-10-31T15:40:29;27.92;;;11.32;;
42988;SDS011;28622;43.716;20.668;2022-10-31T15:43:02;37.50;;;10.85;;
42988;SDS011;28622;43.716;20.668;2022-10-31T15:45:29;30.00;;;11.48;;
42988;SDS011;28622;43.716;20.668;2022-10-31T15:47:57;29.23;;;10.30;;
42988;SDS011;28622;43.716;20.668;2022-10-31T15:53:02;29.20;;;8.75;;
42988;SDS011;28622;43.716;20.668;2022-10-31T15:55:32;28.90;;;8.63;;
42988;SDS011;28622;43.716;20.668;2022-10-31T15:58:09;25.23;;;8.18;;
42988;SDS011;28622;43.716;20.668;2022-10-31T16:00:37;27.13;;;9.02;;
42988;SDS011;28622;43.716;20.668;2022-10-31T16:05:48;24.23;;;9.27;;
42988;SDS011;28622;43.716;20.668;2022-10-31T16:13:33;23.65;;;8.68;;
42988;SDS011;28622;43.716;20.668;2022-10-31T16:16:11;30.10;;;9.98;;
42988;SDS011;28622;43.716;20.668;2022-10-31T16:18:39;19.75;;;8.35;;
42988;SDS011;28622;43.716;20.668;2022-10-31T16:21:06;25.52;;;8.75;;
42988;SDS011;28622;43.716;20.668;2022-10-31T16:23:34;19.63;;;9.07;;
42988;SDS011;28622;43.716;20.668;2022-10-31T16:26:05;22.40;;;9.55;;
42988;SDS011;28622;43.716;20.668;2022-10-31T16:28:31;43.60;;;20.75;;
42988;SDS011;28622;43.716;20.668;2022-10-31T16:30:58;28.75;;;14.15;;
42988;SDS011;28622;43.716;20.668;2022-10-31T16:33:34;40.28;;;18.90;;
42988;SDS011;28622;43.716;20.668;2022-10-31T16:39:03;45.83;;;18.67;;
42988;SDS011;28622;43.716;20.668;2022-10-31T16:41:29;30.23;;;16.98;;
42988;SDS011;28622;43.716;20.668;2022-10-31T16:43:55;47.22;;;21.08;;
42988;SDS011;28622;43.716;20.668;2022-10-31T16:46:25;61.75;;;25.75;;
42988;SDS011;28622;43.716;20.668;2022-10-31T16:48:52;54.40;;;26.88;;
42988;SDS011;28622;43.716;20.668;2022-10-31T16:51:18;53.17;;;25.20;;
42988;SDS011;28622;43.716;20.668;2022-10-31T16:53:44;49.63;;;23.75;;
42988;SDS011;28622;43.716;20.668;2022-10-31T16:56:17;63.40;;;29.83;;
42988;SDS011;28622;43.716;20.668;2022-10-31T16:58:49;102.68;;;42.67;;
42988;SDS011;28622;43.716;20.668;2022-10-31T17:01:15;123.43;;;46.60;;
42988;SDS011;28622;43.716;20.668;2022-10-31T17:03:41;67.72;;;29.35;;
42988;SDS011;28622;43.716;20.668;2022-10-31T17:06:11;82.05;;;34.40;;
42988;SDS011;28622;43.716;20.668;2022-10-31T17:08:38;93.10;;;37.55;;
42988;SDS011;28622;43.716;20.668;2022-10-31T17:11:04;87.93;;;34.13;;
42988;SDS011;28622;43.716;20.668;2022-10-31T17:13:31;79.22;;;33.95;;
42988;SDS011;28622;43.716;20.668;2022-10-31T17:15:59;66.47;;;29.33;;